createdAt,value
2022-07-29T00:01:46.835Z,98243.84
2022-07-29T00:04:16.862Z,98235.22
2022-07-29T00:06:46.700Z,98238.41
2022-07-29T00:09:15.927Z,98232.13
2022-07-29T00:11:45.467Z,98232.69
2022-07-29T00:14:14.990Z,98235.53
2022-07-29T00:16:44.569Z,98227.94
2022-07-29T00:19:13.946Z,98225.91
2022-07-29T00:21:43.177Z,98218.91
2022-07-29T00:24:13.170Z,98217.88
2022-07-29T00:26:42.604Z,98212.91
2022-07-29T00:29:33.740Z,98204.97
2022-07-29T00:32:01.673Z,98200.44
2022-07-29T00:34:43.539Z,98197.00
2022-07-29T00:37:13.057Z,98193.31
2022-07-29T00:39:42.292Z,98185.00
2022-07-29T00:42:11.773Z,98188.34
2022-07-29T00:44:45.157Z,98180.84
2022-07-29T00:47:15.043Z,98183.44
2022-07-29T00:49:45.246Z,98183.44
2022-07-29T00:52:16.932Z,98179.72
2022-07-29T00:54:46.866Z,98178.56
2022-07-29T00:57:16.906Z,98170.66
2022-07-29T00:59:46.135Z,98169.53
2022-07-29T01:02:15.374Z,98170.13
2022-07-29T01:04:44.929Z,98172.16
2022-07-29T01:07:14.346Z,98167.88
2022-07-29T01:09:46.608Z,98169.19
2022-07-29T01:12:19.959Z,98170.66
2022-07-29T01:14:50.358Z,98168.66
2022-07-29T01:17:28.177Z,98166.84
2022-07-29T01:20:16.287Z,98170.19
2022-07-29T01:23:00.711Z,98169.38
2022-07-29T01:25:46.180Z,98178.16
2022-07-29T01:28:39.277Z,98170.06
2022-07-29T01:31:11.249Z,98168.75
2022-07-29T01:33:52.320Z,98165.78
2022-07-29T01:36:27.670Z,98161.03
2022-07-29T01:39:20.927Z,98165.97
2022-07-29T01:42:17.061Z,98160.03
2022-07-29T01:45:19.473Z,98144.16
2022-07-29T01:47:52.324Z,98152.31
2022-07-29T01:50:23.046Z,98153.63
2022-07-29T01:53:00.957Z,98142.53
2022-07-29T01:55:35.115Z,98149.38
2022-07-29T01:58:04.925Z,98141.81
2022-07-29T02:00:35.214Z,98139.78
2022-07-29T02:03:06.720Z,98135.72
2022-07-29T02:05:36.866Z,98138.47
2022-07-29T02:08:09.493Z,98141.25
2022-07-29T02:10:40.474Z,98136.44
2022-07-29T02:13:10.674Z,98127.41
2022-07-29T02:15:40.497Z,98123.50
2022-07-29T02:18:13.688Z,98127.56
2022-07-29T02:20:43.769Z,98131.63
2022-07-29T02:23:14.273Z,98123.91
2022-07-29T02:25:45.123Z,98129.81
2022-07-29T02:28:15.603Z,98129.81
2022-07-29T02:30:46.005Z,98124.13
2022-07-29T02:33:17.346Z,98121.94
2022-07-29T02:35:50.314Z,98122.09
2022-07-29T02:38:33.000Z,98127.06
2022-07-29T02:41:04.235Z,98124.28
2022-07-29T02:43:34.384Z,98125.06
2022-07-29T02:46:04.571Z,98120.63
2022-07-29T02:48:45.675Z,98119.34
2022-07-29T02:51:43.708Z,98117.72
2022-07-29T02:54:11.727Z,98119.91
2022-07-29T02:56:42.402Z,98119.16
2022-07-29T02:59:14.360Z,98112.91
2022-07-29T03:01:46.729Z,98116.97
2022-07-29T03:04:17.363Z,98114.94
2022-07-29T03:06:47.042Z,98120.63
2022-07-29T03:09:17.131Z,98116.19
2022-07-29T03:11:50.584Z,98115.69
2022-07-29T03:14:24.093Z,98117.56
2022-07-29T03:16:53.887Z,98116.41
2022-07-29T03:19:23.890Z,98112.19
2022-07-29T03:21:53.257Z,98110.13
2022-07-29T03:24:37.244Z,98111.59
2022-07-29T03:27:07.613Z,98114.38
2022-07-29T03:29:37.132Z,98109.41
2022-07-29T03:32:09.058Z,98108.84
2022-07-29T03:34:39.645Z,98104.44
2022-07-29T03:37:09.898Z,98109.72
2022-07-29T03:39:43.290Z,98112.09
2022-07-29T03:42:15.076Z,98107.88
2022-07-29T03:44:46.001Z,98118.38
2022-07-29T03:47:17.411Z,98114.47
2022-07-29T03:49:50.446Z,98111.69
2022-07-29T03:52:20.310Z,98110.66
2022-07-29T03:54:50.083Z,98108.19
2022-07-29T03:57:20.098Z,98112.03
2022-07-29T03:59:49.577Z,98112.94
2022-07-29T04:02:22.415Z,98115.84
2022-07-29T04:04:54.064Z,98118.06
2022-07-29T04:07:23.343Z,98113.09
2022-07-29T04:09:52.602Z,98118.97
2022-07-29T04:12:22.080Z,98122.03
2022-07-29T04:14:51.537Z,98118.72
2022-07-29T04:17:20.795Z,98115.63
2022-07-29T04:19:50.076Z,98119.69
2022-07-29T04:22:19.278Z,98123.34
2022-07-29T04:24:48.569Z,98129.78
2022-07-29T04:27:17.819Z,98120.84
2022-07-29T04:29:56.302Z,98122.16
2022-07-29T04:32:27.265Z,98122.88
2022-07-29T04:34:56.615Z,98119.94
2022-07-29T04:37:26.607Z,98116.19
2022-07-29T04:39:55.885Z,98116.84
2022-07-29T04:42:26.732Z,98115.88
2022-07-29T04:44:57.155Z,98121.13
2022-07-29T04:47:26.361Z,98125.28
2022-07-29T04:49:56.294Z,98119.09
2022-07-29T04:52:26.130Z,98118.28
2022-07-29T04:54:55.362Z,98112.19
2022-07-29T04:57:24.683Z,98109.56
2022-07-29T04:59:53.987Z,98110.44
2022-07-29T05:02:23.283Z,98113.28
2022-07-29T05:04:52.630Z,98121.09
2022-07-29T05:07:21.899Z,98116.16
2022-07-29T05:09:51.179Z,98115.88
2022-07-29T05:12:20.389Z,98117.81
2022-07-29T05:14:49.659Z,98124.28
2022-07-29T05:17:18.941Z,98119.75
2022-07-29T05:19:48.436Z,98119.66
2022-07-29T05:22:17.649Z,98120.53
2022-07-29T05:24:46.886Z,98124.50
2022-07-29T05:27:16.425Z,98129.06
2022-07-29T05:29:45.898Z,98124.22
2022-07-29T05:32:16.345Z,98127.31
2022-07-29T05:34:51.063Z,98132.31
2022-07-29T05:37:20.858Z,98125.91
2022-07-29T05:39:56.741Z,98127.22
2022-07-29T05:42:30.271Z,98123.59
2022-07-29T05:44:59.556Z,98127.41
2022-07-29T05:47:29.262Z,98125.09
2022-07-29T05:49:58.522Z,98128.91
2022-07-29T05:52:27.780Z,98127.91
2022-07-29T05:54:57.414Z,98128.19
2022-07-29T05:57:27.947Z,98120.31
2022-07-29T05:59:57.202Z,98131.72
2022-07-29T06:02:26.465Z,98129.38
2022-07-29T06:04:55.951Z,98128.22
2022-07-29T06:07:25.430Z,98127.34
2022-07-29T06:09:54.678Z,98122.22
2022-07-29T06:12:24.535Z,98116.38
2022-07-29T06:14:54.315Z,98122.25
2022-07-29T06:17:23.714Z,98119.91
2022-07-29T06:19:53.145Z,98119.75
2022-07-29T06:22:22.402Z,98120.78
2022-07-29T06:24:51.638Z,98126.03
2022-07-29T06:27:20.886Z,98128.25
2022-07-29T06:29:50.164Z,98130.28
2022-07-29T06:32:20.194Z,98133.19
2022-07-29T06:34:52.196Z,98129.09
2022-07-29T06:37:23.183Z,98128.50
2022-07-29T06:40:14.844Z,98124.56
2022-07-29T06:42:47.644Z,98123.66
2022-07-29T06:45:17.211Z,98120.44
2022-07-29T06:47:46.448Z,98131.28
2022-07-29T06:50:16.168Z,98137.84
2022-07-29T06:52:45.485Z,98136.50
2022-07-29T06:55:24.983Z,98134.03
2022-07-29T06:57:55.059Z,98142.78
2022-07-29T07:00:24.442Z,98136.06
2022-07-29T07:02:53.745Z,98140.41
2022-07-29T07:05:23.018Z,98140.00
2022-07-29T07:07:52.222Z,98136.88
2022-07-29T07:10:22.031Z,98142.16
2022-07-29T07:12:53.345Z,98135.88
2022-07-29T07:15:24.337Z,98135.56
2022-07-29T07:18:10.007Z,98135.56
2022-07-29T07:20:40.398Z,98136.56
2022-07-29T07:23:09.690Z,98132.00
2022-07-29T07:25:38.906Z,98141.22
2022-07-29T07:28:08.475Z,98137.13
2022-07-29T07:30:37.705Z,98134.19
2022-07-29T07:33:07.055Z,98130.50
2022-07-29T07:35:36.505Z,98132.97
2022-07-29T07:38:06.982Z,98130.59
2022-07-29T07:40:36.667Z,98119.16
2022-07-29T07:43:06.038Z,98118.97
2022-07-29T07:45:38.366Z,98114.78
2022-07-29T07:48:11.182Z,98124.56
2022-07-29T07:50:40.843Z,98136.34
2022-07-29T07:53:10.322Z,98139.09
2022-07-29T07:56:09.407Z,98139.00
2022-07-29T07:58:36.404Z,98141.59
2022-07-29T08:01:06.068Z,98142.84
2022-07-29T08:03:36.603Z,98135.63
2022-07-29T08:06:07.498Z,98134.81
2022-07-29T08:08:37.189Z,98136.16
2022-07-29T08:11:09.710Z,98132.06
2022-07-29T08:13:39.812Z,98138.88
2022-07-29T08:16:16.444Z,98133.31
2022-07-29T08:18:47.164Z,98132.28
2022-07-29T08:21:17.278Z,98124.41
2022-07-29T08:24:00.803Z,98133.53
2022-07-29T08:26:32.193Z,98130.41
2022-07-29T08:29:01.591Z,98130.66
2022-07-29T08:31:31.088Z,98125.09
2022-07-29T08:34:00.893Z,98116.44
2022-07-29T08:36:30.233Z,98118.75
2022-07-29T08:38:59.756Z,98125.47
2022-07-29T08:41:29.747Z,98118.09
2022-07-29T08:43:59.011Z,98124.63
2022-07-29T08:46:29.240Z,98124.69
2022-07-29T08:48:59.116Z,98118.09
2022-07-29T08:51:29.321Z,98131.78
2022-07-29T08:53:58.688Z,98125.22
2022-07-29T08:56:28.047Z,98128.41
2022-07-29T08:58:57.746Z,98130.28
2022-07-29T09:01:36.499Z,98122.88
2022-07-29T09:04:15.100Z,98126.91
2022-07-29T09:06:49.538Z,98121.31
2022-07-29T09:09:18.929Z,98122.41
2022-07-29T09:11:48.146Z,98116.50
2022-07-29T09:14:17.584Z,98118.03
2022-07-29T09:16:58.765Z,98115.44
2022-07-29T09:19:35.893Z,98120.50
2022-07-29T09:22:07.465Z,98117.19
2022-07-29T09:24:44.765Z,98123.91
2022-07-29T09:27:23.196Z,98113.88
2022-07-29T09:30:25.676Z,98114.81
2022-07-29T09:33:03.822Z,98113.19
2022-07-29T09:35:33.816Z,98105.22
2022-07-29T09:38:14.605Z,98099.44
2022-07-29T09:40:44.089Z,98103.31
2022-07-29T09:43:14.945Z,98097.78
2022-07-29T09:45:44.530Z,98097.25
2022-07-29T09:48:22.078Z,98094.88
2022-07-29T09:50:51.431Z,98083.28
2022-07-29T09:53:34.626Z,98083.63
2022-07-29T09:56:04.442Z,98082.25
2022-07-29T09:58:34.698Z,98084.44
2022-07-29T10:01:04.414Z,98074.00
2022-07-29T10:03:33.770Z,98067.94
2022-07-29T10:06:09.948Z,98069.78
2022-07-29T10:08:39.412Z,98076.56
2022-07-29T10:11:18.821Z,98060.84
2022-07-29T10:13:50.002Z,98057.44
2022-07-29T10:16:20.091Z,98062.78
2022-07-29T10:18:49.965Z,98069.59
2022-07-29T10:21:34.765Z,98064.75
2022-07-29T10:24:06.030Z,98061.56
2022-07-29T10:26:36.337Z,98056.34
2022-07-29T10:29:05.883Z,98052.19
2022-07-29T10:31:49.901Z,98058.13
2022-07-29T10:34:36.194Z,98045.66
2022-07-29T10:37:22.245Z,98046.78
2022-07-29T10:40:26.089Z,98037.28
2022-07-29T10:42:58.015Z,98043.50
2022-07-29T10:45:30.444Z,98046.69
2022-07-29T10:48:08.533Z,98038.84
2022-07-29T10:50:57.890Z,98050.13
2022-07-29T10:53:27.523Z,98043.31
2022-07-29T10:56:06.523Z,98043.09
2022-07-29T10:58:35.916Z,98035.41
2022-07-29T11:01:37.054Z,98044.66
2022-07-29T11:04:08.182Z,98035.78
2022-07-29T11:10:15.399Z,98035.84
2022-07-29T11:12:46.938Z,98032.25
2022-07-29T11:15:24.939Z,98033.63
2022-07-29T11:17:59.400Z,98040.63
2022-07-29T11:20:50.944Z,98038.38
2022-07-29T11:23:34.825Z,98031.47
2022-07-29T11:26:23.105Z,98028.47
2022-07-29T11:29:06.980Z,98020.56
2022-07-29T11:31:52.488Z,98024.69
2022-07-29T11:34:29.721Z,98031.91
2022-07-29T11:37:10.965Z,98031.81
2022-07-29T11:39:47.698Z,98022.53
2022-07-29T11:42:34.331Z,98014.00
2022-07-29T11:50:53.514Z,98011.19
2022-07-29T11:53:22.904Z,98008.91
2022-07-29T11:55:58.638Z,98017.75
2022-07-29T11:58:28.115Z,98007.56
2022-07-29T12:00:57.456Z,98004.19
2022-07-29T12:03:33.254Z,98007.72
2022-07-29T12:06:07.927Z,98006.13
2022-07-29T12:07:02.021Z,98015.59
2022-07-29T12:08:44.495Z,98005.81
2022-07-29T12:11:22.959Z,98005.25
2022-07-29T12:13:54.693Z,98006.34
2022-07-29T12:16:26.068Z,98002.56
2022-07-29T12:19:03.986Z,98000.03
2022-07-29T12:21:56.435Z,97990.22
2022-07-29T12:24:27.419Z,97989.63
2022-07-29T12:26:57.516Z,97989.50
2022-07-29T12:29:34.879Z,97985.22
2022-07-29T12:32:14.346Z,97994.19
2022-07-29T12:34:48.626Z,97983.22
2022-07-29T12:37:18.024Z,98003.44
2022-07-29T12:39:47.378Z,97994.13
2022-07-29T12:42:19.319Z,97997.88
2022-07-29T12:44:54.463Z,98002.38
2022-07-29T12:47:24.330Z,97990.16
2022-07-29T12:49:54.481Z,97990.88
2022-07-29T12:52:33.858Z,97977.47
2022-07-29T12:55:03.520Z,97979.13
2022-07-29T12:57:33.224Z,97977.69
2022-07-29T13:00:12.051Z,97969.97
2022-07-29T13:02:42.692Z,97973.63
2022-07-29T13:05:13.799Z,97978.75
2022-07-29T13:07:55.192Z,97973.38
2022-07-29T13:10:27.051Z,97981.16
2022-07-29T13:13:17.069Z,97987.06
2022-07-29T13:15:48.781Z,97986.03
2022-07-29T13:18:34.651Z,97981.78
2022-07-29T13:21:18.919Z,97986.97
2022-07-29T13:23:48.427Z,97990.13
2022-07-29T13:26:20.691Z,97979.53
2022-07-29T13:28:49.958Z,97980.66
2022-07-29T13:31:19.312Z,97987.66
2022-07-29T13:33:49.026Z,97978.91
2022-07-29T13:36:18.619Z,97977.38
2022-07-29T13:38:47.847Z,97975.63
2022-07-29T13:41:19.906Z,97968.38
2022-07-29T13:43:50.119Z,97981.25
2022-07-29T13:46:19.558Z,97974.25
2022-07-29T13:48:48.863Z,97976.41
2022-07-29T13:51:18.360Z,97979.63
2022-07-29T13:53:47.583Z,97976.75
2022-07-29T13:56:16.953Z,97976.56
2022-07-29T13:58:46.158Z,97970.88
2022-07-29T14:01:15.391Z,97972.53
2022-07-29T14:03:45.754Z,97979.44
2022-07-29T14:06:15.203Z,97973.16
2022-07-29T14:08:44.847Z,97975.63
2022-07-29T14:11:14.070Z,97981.81
2022-07-29T14:13:43.518Z,97981.47
2022-07-29T14:16:12.796Z,97981.06
2022-07-29T14:18:42.021Z,97990.94
2022-07-29T14:21:11.327Z,97989.50
2022-07-29T14:23:42.440Z,97993.47
2022-07-29T14:26:15.878Z,97996.50
2022-07-29T14:28:50.853Z,97998.94
2022-07-29T14:31:20.146Z,98003.25
2022-07-29T14:33:49.493Z,97997.66
2022-07-29T14:36:18.789Z,98001.63
2022-07-29T14:38:47.972Z,98006.44
2022-07-29T14:41:17.219Z,98012.69
2022-07-29T14:43:46.444Z,98015.41
2022-07-29T14:46:16.031Z,98020.09
2022-07-29T14:48:45.339Z,98020.09
2022-07-29T14:51:14.584Z,98023.53
2022-07-29T14:53:44.379Z,98036.75
2022-07-29T14:56:35.599Z,98048.97
2022-07-29T14:59:03.137Z,98054.97
2022-07-29T15:01:33.169Z,98054.41
2022-07-29T15:04:02.473Z,98070.31
2022-07-29T15:06:31.877Z,98067.91
2022-07-29T15:09:01.093Z,98071.47
2022-07-29T15:11:30.308Z,98066.84
2022-07-29T15:14:06.918Z,98056.44
2022-07-29T15:16:36.613Z,98060.47
2022-07-29T15:19:06.344Z,98068.75
2022-07-29T15:21:35.825Z,98051.22
2022-07-29T15:24:11.065Z,98050.97
2022-07-29T15:26:40.340Z,98045.16
2022-07-29T15:29:09.569Z,98042.19
2022-07-29T15:31:39.133Z,98042.06
2022-07-29T15:34:08.658Z,98040.59
2022-07-29T15:36:53.894Z,98039.63
2022-07-29T15:39:24.689Z,98034.66
2022-07-29T15:41:54.143Z,98020.34
2022-07-29T15:44:23.774Z,98037.38
2022-07-29T15:47:08.347Z,98023.63
2022-07-29T15:49:46.322Z,98028.31
2022-07-29T15:52:18.424Z,98030.69
2022-07-29T15:54:48.346Z,98026.63
2022-07-29T15:57:17.733Z,98011.41
2022-07-29T15:59:47.222Z,98011.75
2022-07-29T16:02:16.455Z,98015.06
2022-07-29T16:04:45.678Z,98006.13
2022-07-29T16:07:15.093Z,97995.38
2022-07-29T16:09:49.244Z,97993.81
2022-07-29T16:12:20.192Z,97989.94
2022-07-29T16:14:49.686Z,97981.72
2022-07-29T16:17:19.048Z,97981.84
2022-07-29T16:19:48.792Z,97976.50
2022-07-29T16:22:18.012Z,97967.78
2022-07-29T16:24:47.270Z,97969.38
2022-07-29T16:27:16.479Z,97970.63
2022-07-29T16:29:46.923Z,97964.81
2022-07-29T16:32:16.169Z,97962.97
2022-07-29T16:34:51.682Z,97948.91
2022-07-29T16:37:20.943Z,97959.44
2022-07-29T16:39:50.186Z,97959.59
2022-07-29T16:42:36.896Z,97955.25
2022-07-29T16:45:09.139Z,97956.34
2022-07-29T16:47:38.799Z,97954.03
2022-07-29T16:50:08.893Z,97959.94
2022-07-29T16:52:38.497Z,97957.28
2022-07-29T16:55:08.217Z,97962.72
2022-07-29T16:57:37.461Z,97955.56
2022-07-29T17:00:08.737Z,97953.22
2022-07-29T17:02:38.842Z,97963.41
2022-07-29T17:05:10.643Z,97967.38
2022-07-29T17:07:39.894Z,97973.69
2022-07-29T17:10:10.778Z,97965.78
2022-07-29T17:12:41.065Z,97964.22
2022-07-29T17:15:12.857Z,97958.44
2022-07-29T17:17:54.863Z,97963.50
2022-07-29T17:20:26.619Z,97966.06
2022-07-29T17:22:56.068Z,97962.31
2022-07-29T17:25:25.668Z,97963.25
2022-07-29T17:28:00.488Z,97968.16
2022-07-29T17:30:30.224Z,97970.69
2022-07-29T17:32:59.491Z,97970.94
2022-07-29T17:35:41.351Z,97972.66
2022-07-29T17:38:10.626Z,97984.28
2022-07-29T17:40:39.935Z,97975.69
2022-07-29T17:43:09.398Z,97983.81
2022-07-29T17:45:50.083Z,97988.44
2022-07-29T17:48:21.226Z,97989.66
2022-07-29T17:50:51.078Z,97978.50
2022-07-29T17:53:20.402Z,97984.19
2022-07-29T17:55:50.234Z,97988.31
2022-07-29T17:58:19.578Z,97985.88
2022-07-29T18:00:48.834Z,97985.88
2022-07-29T18:03:18.229Z,97980.81
2022-07-29T18:05:47.906Z,97977.03
2022-07-29T18:08:17.164Z,97980.59
2022-07-29T18:10:47.470Z,97970.16
2022-07-29T18:13:16.815Z,97962.00
2022-07-29T18:15:47.891Z,97970.50
2022-07-29T18:18:18.471Z,97959.94
2022-07-29T18:20:48.636Z,97972.22
2022-07-29T18:23:17.988Z,97965.66
2022-07-29T18:25:47.278Z,97945.19
2022-07-29T18:28:16.522Z,97958.88
2022-07-29T18:30:46.598Z,97948.03
2022-07-29T18:33:22.098Z,97948.94
2022-07-29T18:36:07.688Z,97945.88
2022-07-29T18:38:40.549Z,97950.00
2022-07-29T18:41:10.129Z,97951.00
2022-07-29T18:43:39.382Z,97940.06
2022-07-29T18:46:08.675Z,97946.38
2022-07-29T18:48:38.081Z,97954.63
2022-07-29T18:51:09.236Z,97955.47
2022-07-29T18:53:39.069Z,97956.34
2022-07-29T18:56:08.340Z,97954.28
2022-07-29T18:58:38.916Z,97950.03
2022-07-29T19:01:10.587Z,97957.66
2022-07-29T19:03:41.634Z,97961.78
2022-07-29T19:06:11.007Z,97953.41
2022-07-29T19:08:40.256Z,97960.94
2022-07-29T19:11:09.484Z,97961.56
2022-07-29T19:13:39.044Z,97964.22
2022-07-29T19:16:12.077Z,97961.25
2022-07-29T19:18:41.531Z,97958.00
2022-07-29T19:21:10.801Z,97967.81
2022-07-29T19:24:02.451Z,97960.66
2022-07-29T19:26:29.272Z,97976.66
2022-07-29T19:28:58.507Z,97978.75
2022-07-29T19:31:27.860Z,97986.13
2022-07-29T19:33:57.208Z,97989.03
2022-07-29T19:36:27.362Z,97998.72
2022-07-29T19:38:56.597Z,97983.94
2022-07-29T19:41:25.893Z,97991.19
2022-07-29T19:43:55.367Z,97993.47
2022-07-29T19:46:25.062Z,97987.53
2022-07-29T19:48:54.764Z,97988.63
2022-07-29T19:51:25.132Z,97990.31
2022-07-29T19:53:54.455Z,97998.78
2022-07-29T19:56:26.702Z,98003.28
2022-07-29T19:58:57.652Z,98000.28
2022-07-29T20:01:27.403Z,97990.69
2022-07-29T20:03:56.708Z,98001.50
2022-07-29T20:06:27.185Z,97993.72
2022-07-29T20:08:58.711Z,97993.88
2022-07-29T20:11:29.823Z,98000.16
2022-07-29T20:13:59.153Z,97993.88
2022-07-29T20:16:28.481Z,97991.53
2022-07-29T20:18:57.758Z,97993.47
2022-07-29T20:21:27.371Z,97994.81
2022-07-29T20:24:00.507Z,97991.16
2022-07-29T20:26:29.812Z,97990.19
2022-07-29T20:28:59.447Z,97983.41
2022-07-29T20:31:30.636Z,97987.63
2022-07-29T20:34:00.055Z,97989.69
2022-07-29T20:36:29.384Z,97997.53
2022-07-29T20:38:59.999Z,98000.56
2022-07-29T20:41:29.364Z,98008.34
2022-07-29T20:43:58.810Z,98010.41
2022-07-29T20:46:28.191Z,98011.47
2022-07-29T20:48:57.606Z,98017.78
2022-07-29T20:51:27.214Z,98026.63
2022-07-29T20:53:56.521Z,98022.56
2022-07-29T20:56:25.834Z,98032.19
2022-07-29T20:58:55.281Z,98031.06
2022-07-29T21:01:24.557Z,98031.13
2022-07-29T21:03:53.846Z,98039.97
2022-07-29T21:06:23.061Z,98033.63
2022-07-29T21:08:52.342Z,98039.34
2022-07-29T21:11:43.162Z,98048.97
2022-07-29T21:14:17.768Z,98060.72
2022-07-29T21:16:47.052Z,98059.22
2022-07-29T21:19:16.301Z,98052.59
2022-07-29T21:21:45.547Z,98063.28
2022-07-29T21:24:14.777Z,98059.63
2022-07-29T21:26:50.645Z,98055.38
2022-07-29T21:29:26.201Z,98059.03
2022-07-29T21:31:55.468Z,98066.81
2022-07-29T21:34:24.712Z,98067.06
2022-07-29T21:36:54.052Z,98074.81
2022-07-29T21:39:23.439Z,98075.53
2022-07-29T21:41:52.736Z,98065.59
2022-07-29T21:44:22.187Z,98076.63
2022-07-29T21:46:52.038Z,98080.84
2022-07-29T21:49:21.335Z,98084.81
2022-07-29T21:51:50.605Z,98087.22
2022-07-29T21:54:20.129Z,98085.75
2022-07-29T21:56:51.442Z,98093.25
2022-07-29T21:59:20.901Z,98101.34
2022-07-29T22:01:50.157Z,98101.25
2022-07-29T22:04:19.444Z,98094.75
2022-07-29T22:06:48.744Z,98105.88
2022-07-29T22:09:17.988Z,98105.88
2022-07-29T22:11:47.960Z,98105.78
2022-07-29T22:14:18.587Z,98104.81
2022-07-29T22:16:48.772Z,98103.50
2022-07-29T22:19:18.329Z,98099.25
2022-07-29T22:21:47.562Z,98106.75
2022-07-29T22:24:16.788Z,98103.66
2022-07-29T22:26:46.028Z,98097.84
2022-07-29T22:29:17.686Z,98101.50
2022-07-29T22:31:47.242Z,98102.53
2022-07-29T22:34:16.541Z,98085.13
2022-07-29T22:36:45.778Z,98086.03
2022-07-29T22:39:15.629Z,98085.63
2022-07-29T22:41:45.495Z,98088.25
2022-07-29T22:44:14.715Z,98072.91
2022-07-29T22:46:43.991Z,98079.91
2022-07-29T22:49:13.326Z,98079.81
2022-07-29T22:51:42.591Z,98084.78
2022-07-29T22:54:11.939Z,98086.56
2022-07-29T22:56:41.293Z,98085.38
2022-07-29T22:59:10.776Z,98095.19
2022-07-29T23:01:40.025Z,98102.94
2022-07-29T23:04:09.774Z,98092.69
2022-07-29T23:06:39.143Z,98101.16
2022-07-29T23:09:08.436Z,98092.41
2022-07-29T23:11:37.856Z,98084.94
2022-07-29T23:14:07.154Z,98080.69
2022-07-29T23:16:38.988Z,98082.34
2022-07-29T23:19:08.706Z,98082.63
2022-07-29T23:21:38.060Z,98092.53
2022-07-29T23:24:07.454Z,98090.34
2022-07-29T23:26:36.955Z,98097.38
2022-07-29T23:29:06.372Z,98087.28
2022-07-29T23:31:36.034Z,98091.22
2022-07-29T23:34:11.334Z,98093.53
2022-07-29T23:36:42.323Z,98097.66
2022-07-29T23:39:13.343Z,98093.00
2022-07-29T23:41:42.862Z,98096.19
2022-07-29T23:44:12.077Z,98099.56
2022-07-29T23:46:41.400Z,98089.63
2022-07-29T23:49:10.726Z,98088.59
2022-07-29T23:51:39.993Z,98081.56
2022-07-29T23:54:09.224Z,98092.06
2022-07-29T23:56:38.524Z,98089.41
2022-07-29T23:59:07.766Z,98100.50
